createdAt,value
2019-04-11T00:00:26.023Z,8.20
2019-04-11T00:10:29.118Z,8.10
2019-04-11T00:20:31.891Z,8.00
2019-04-11T00:30:34.382Z,7.90
2019-04-11T00:40:37.442Z,7.70
2019-04-11T00:50:39.530Z,7.60
2019-04-11T01:00:41.556Z,7.40
2019-04-11T01:10:43.637Z,7.40
2019-04-11T01:20:46.020Z,7.30
2019-04-11T01:30:49.190Z,7.20
2019-04-11T01:40:51.391Z,7.10
2019-04-11T01:50:53.640Z,7.00
2019-04-11T02:00:56.775Z,6.90
2019-04-11T02:10:59.272Z,6.80
2019-04-11T02:21:01.429Z,6.60
2019-04-11T02:31:05.394Z,6.60
2019-04-11T02:41:08.562Z,6.50
2019-04-11T02:51:12.472Z,6.40
2019-04-11T03:01:15.584Z,6.40
2019-04-11T03:11:19.169Z,6.30
2019-04-11T03:21:23.494Z,6.20
2019-04-11T03:32:05.929Z,6.10
2019-04-11T03:41:48.957Z,6.10
2019-04-11T03:51:33.958Z,6.10
2019-04-11T04:01:38.041Z,6.00
2019-04-11T04:11:40.975Z,6.00
2019-04-11T04:21:43.606Z,6.00
2019-04-11T04:31:46.684Z,5.80
2019-04-11T04:41:57.974Z,5.90
2019-04-11T04:51:53.421Z,5.80
2019-04-11T05:01:56.052Z,5.80
2019-04-11T05:11:58.099Z,5.90
2019-04-11T05:22:00.153Z,5.90
2019-04-11T05:32:03.120Z,6.00
2019-04-11T05:42:05.091Z,6.10
2019-04-11T05:52:08.128Z,6.20
2019-04-11T06:02:11.062Z,6.30
2019-04-11T06:12:13.684Z,6.40
2019-04-11T06:22:16.868Z,6.50
2019-04-11T06:32:19.352Z,6.60
2019-04-11T06:42:24.112Z,6.70
2019-04-11T06:52:26.513Z,6.90
2019-04-11T07:02:28.584Z,7.00
2019-04-11T07:12:30.804Z,7.20
2019-04-11T07:22:32.815Z,7.40
2019-04-11T07:32:34.799Z,7.60
2019-04-11T07:42:37.398Z,7.80
2019-04-11T07:52:39.491Z,8.10
2019-04-11T08:02:41.707Z,8.40
2019-04-11T08:12:43.661Z,8.60
2019-04-11T08:22:45.690Z,8.90
2019-04-11T08:32:47.663Z,9.20
2019-04-11T08:42:50.758Z,9.50
2019-04-11T08:52:54.133Z,9.80
2019-04-11T09:02:57.475Z,9.90
2019-04-11T09:13:01.088Z,10.30
2019-04-11T09:23:03.743Z,11.00
2019-04-11T09:33:06.827Z,10.90
2019-04-11T09:43:09.364Z,11.10
2019-04-11T09:53:12.125Z,10.90
2019-04-11T10:03:15.315Z,11.30
2019-04-11T10:13:18.456Z,11.50
2019-04-11T10:23:20.875Z,11.70
2019-04-11T10:33:22.871Z,11.90
2019-04-11T10:43:24.987Z,12.10
2019-04-11T10:53:27.080Z,12.70
2019-04-11T11:03:29.103Z,13.10
2019-04-11T11:13:32.023Z,12.90
2019-04-11T11:23:35.154Z,13.80
2019-04-11T11:33:38.453Z,13.80
2019-04-11T11:43:41.268Z,13.90
2019-04-11T11:53:43.384Z,14.20
2019-04-11T12:03:46.373Z,24.40
2019-04-11T12:13:48.696Z,33.40
2019-04-11T12:23:58.297Z,39.40
2019-04-11T12:33:54.750Z,41.70
2019-04-11T12:43:56.756Z,43.00
2019-04-11T12:53:58.843Z,45.30
2019-04-11T13:04:00.892Z,47.20
2019-04-11T13:14:02.866Z,46.70
2019-04-11T13:24:04.864Z,50.00
2019-04-11T13:34:06.838Z,43.50
2019-04-11T13:44:09.905Z,48.70
2019-04-11T13:54:11.952Z,48.80
2019-04-11T14:04:15.965Z,46.00
2019-04-11T14:14:18.410Z,47.40
2019-04-11T14:24:20.381Z,39.90
2019-04-11T14:34:22.352Z,30.30
2019-04-11T14:44:24.347Z,27.20
2019-04-11T14:54:26.584Z,31.30
2019-04-11T15:04:28.620Z,37.20
2019-04-11T15:14:30.768Z,39.80
2019-04-11T15:24:32.700Z,40.80
2019-04-11T15:34:34.790Z,38.80
2019-04-11T15:44:36.727Z,23.90
2019-04-11T15:54:38.695Z,18.70
2019-04-11T16:04:40.756Z,16.80
2019-04-11T16:14:42.712Z,15.70
2019-04-11T16:24:44.758Z,15.10
2019-04-11T16:34:48.641Z,14.50
2019-04-11T16:44:54.697Z,14.20
2019-04-11T16:54:54.444Z,13.80
2019-04-11T17:04:56.442Z,13.50
2019-04-11T17:15:01.008Z,13.20
2019-04-11T17:25:02.340Z,12.80
2019-04-11T17:35:04.606Z,12.40
2019-04-11T17:45:06.672Z,12.00
2019-04-11T17:55:10.420Z,11.80
2019-04-11T18:05:16.734Z,11.50
2019-04-11T18:15:18.064Z,11.30
2019-04-11T18:25:21.055Z,11.00
2019-04-11T18:35:23.537Z,10.70
2019-04-11T18:45:25.583Z,10.50
2019-04-11T18:55:27.553Z,10.20
2019-04-11T19:05:29.514Z,10.00
2019-04-11T19:15:31.595Z,9.90
2019-04-11T19:25:33.552Z,9.70
2019-04-11T19:35:35.561Z,9.50
2019-04-11T19:45:38.189Z,9.30
2019-04-11T19:55:40.914Z,9.20
2019-04-11T20:05:42.895Z,9.00
2019-04-11T20:15:45.717Z,8.90
2019-04-11T20:25:49.742Z,8.80
2019-04-11T20:35:51.435Z,8.70
2019-04-11T20:45:54.105Z,8.50
2019-04-11T20:55:56.639Z,8.50
2019-04-11T21:05:59.027Z,8.40
2019-04-11T21:16:02.360Z,8.20
2019-04-11T21:26:04.359Z,8.20
2019-04-11T21:36:06.517Z,8.10
2019-04-11T21:46:08.842Z,8.00
2019-04-11T21:56:11.182Z,8.00
2019-04-11T22:06:13.159Z,7.90
2019-04-11T22:16:15.552Z,7.90
2019-04-11T22:26:17.483Z,8.00
2019-04-11T22:36:19.838Z,8.10
2019-04-11T22:46:21.843Z,8.00
2019-04-11T22:56:23.749Z,8.00
2019-04-11T23:06:25.796Z,8.00
2019-04-11T23:16:27.894Z,8.00
2019-04-11T23:26:29.936Z,8.00
2019-04-11T23:36:32.044Z,8.00
2019-04-11T23:46:34.105Z,8.00
2019-04-11T23:56:36.078Z,8.10
